Time;durP1;ratioP1;P1;durP2;ratioP2;P2;SDS_P1;SDS_P2;PMS_P1;PMS_P2;Temp;Humidity;BMP_temperature;BMP_pressure;BME280_temperature;BME280_humidity;BME280_pressure;Samples;Min_cycle;Max_cycle;Signal;HPM_P1;HPM_P2
2022/12/29 00:01:52;;;;;;;1999.90;999.90;;;10.40;99.90;;;;;;5051347;28;20831;-73
2022/12/29 00:04:19;;;;;;;1999.90;999.90;;;10.50;99.90;;;;;;5051603;28;20417;-71
2022/12/29 00:06:46;;;;;;;1999.90;999.90;;;10.50;99.90;;;;;;5050156;28;20516;-70
2022/12/29 00:09:13;;;;;;;1999.90;999.90;;;10.50;99.90;;;;;;5051216;28;20433;-73
2022/12/29 00:11:40;;;;;;;1999.90;999.90;;;10.50;99.90;;;;;;5051222;28;20420;-73
2022/12/29 00:16:54;;;;;;;1999.90;999.90;;;10.50;99.90;;;;;;5049981;28;20479;-72
2022/12/29 00:35:58;;;;;;;1999.90;999.90;;;10.60;99.90;;;;;;5049582;28;20559;-72
2022/12/29 00:44:16;;;;;;;1999.90;999.90;;;10.70;99.90;;;;;;4989044;28;20452;-68
2022/12/29 00:46:44;;;;;;;1999.90;999.90;;;10.70;99.90;;;;;;4995898;28;20438;-70
2022/12/29 00:51:57;;;;;;;1999.90;999.90;;;10.60;99.90;;;;;;5031911;28;20397;-72
2022/12/29 00:54:24;;;;;;;1999.90;999.90;;;10.60;99.90;;;;;;5047827;28;20901;-71
2022/12/29 00:56:52;;;;;;;1999.90;999.90;;;10.70;99.90;;;;;;5047468;28;20436;-70
2022/12/29 00:59:19;;;;;;;1999.90;999.90;;;10.80;99.90;;;;;;5048171;28;20428;-73
2022/12/29 01:01:48;;;;;;;1999.90;999.90;;;10.90;99.90;;;;;;5048342;28;20429;-71
2022/12/29 01:04:15;;;;;;;1999.90;999.90;;;10.90;99.90;;;;;;5048222;28;20479;-72
2022/12/29 01:06:42;;;;;;;1999.90;999.90;;;10.90;99.90;;;;;;5047482;28;20421;-71
2022/12/29 01:11:54;;;;;;;1999.90;999.90;;;10.90;99.90;;;;;;5047247;28;20404;-72
2022/12/29 01:14:21;;;;;;;1999.90;999.90;;;10.80;99.90;;;;;;5045231;28;20415;-72
2022/12/29 01:16:49;;;;;;;1999.90;999.90;;;10.90;99.90;;;;;;5047947;28;20467;-69
2022/12/29 01:19:17;;;;;;;1999.90;999.90;;;11.00;99.90;;;;;;5047936;28;20416;-72
2022/12/29 01:21:43;;;;;;;1999.90;999.90;;;11.00;99.90;;;;;;5048361;28;20412;-71
2022/12/29 01:24:10;;;;;;;1999.90;999.90;;;11.00;99.90;;;;;;5047021;28;21177;-71
2022/12/29 01:26:36;;;;;;;1999.90;999.90;;;11.00;99.90;;;;;;5047621;28;20425;-71
2022/12/29 01:29:03;;;;;;;1999.90;999.90;;;10.90;99.90;;;;;;5048124;28;20425;-72
2022/12/29 01:31:30;;;;;;;1999.90;999.90;;;10.90;99.90;;;;;;5046006;28;20413;-70
2022/12/29 01:33:58;;;;;;;1999.90;999.90;;;10.80;99.90;;;;;;5045346;28;20440;-71
2022/12/29 01:36:25;;;;;;;1999.90;999.90;;;10.90;99.90;;;;;;5046082;28;20421;-71
2022/12/29 01:38:52;;;;;;;1999.90;999.90;;;10.80;99.90;;;;;;5046393;28;20425;-70
2022/12/29 01:41:18;;;;;;;1999.90;999.90;;;10.90;99.90;;;;;;5046504;28;20412;-71
2022/12/29 01:43:47;;;;;;;1999.90;999.90;;;11.00;99.90;;;;;;5045270;28;20486;-72
2022/12/29 01:46:23;;;;;;;1999.90;999.90;;;10.90;99.90;;;;;;5046893;28;20417;-72
2022/12/29 01:48:52;;;;;;;1999.90;999.90;;;10.90;99.90;;;;;;5048125;28;20429;-72
2022/12/29 01:51:22;;;;;;;1999.90;999.90;;;10.90;99.90;;;;;;5048076;28;20471;-72
2022/12/29 01:53:49;;;;;;;1999.90;999.90;;;10.90;99.90;;;;;;5046663;28;20483;-72
2022/12/29 01:56:20;;;;;;;1999.90;999.90;;;10.90;99.90;;;;;;5049191;28;20893;-72
2022/12/29 01:58:53;;;;;;;1999.90;999.90;;;10.90;99.90;;;;;;5050039;28;20417;-71
2022/12/29 02:01:21;;;;;;;1999.90;999.90;;;10.90;99.90;;;;;;5050137;28;20470;-72
2022/12/29 02:03:49;;;;;;;1999.90;999.90;;;10.90;99.90;;;;;;5048808;28;20486;-71
2022/12/29 02:06:19;;;;;;;1999.90;999.90;;;10.90;99.90;;;;;;5049386;28;20425;-72
2022/12/29 02:08:50;;;;;;;1999.90;999.90;;;11.00;99.90;;;;;;5051531;28;20430;-71
2022/12/29 02:11:17;;;;;;;1999.90;999.90;;;11.00;99.90;;;;;;5053792;28;20479;-71
2022/12/29 02:13:43;;;;;;;1999.90;999.90;;;11.00;99.90;;;;;;5052091;28;20441;-71
2022/12/29 02:16:22;;;;;;;1999.90;999.90;;;11.00;99.90;;;;;;5051049;28;20433;-72
2022/12/29 02:19:00;;;;;;;1999.90;999.90;;;11.00;99.90;;;;;;5033165;28;20768;-71
2022/12/29 02:21:48;;;;;;;1999.90;999.90;;;11.10;99.90;;;;;;5033588;28;20419;-71
2022/12/29 02:24:52;;;;;;;1999.90;999.90;;;11.10;99.90;;;;;;5050698;28;20432;-71
2022/12/29 02:27:48;;;;;;;1999.90;999.90;;;11.10;99.90;;;;;;5033074;28;20415;-71
2022/12/29 02:30:37;;;;;;;1999.90;999.90;;;11.20;99.90;;;;;;5038739;28;20983;-72
2022/12/29 02:33:12;;;;;;;1999.90;999.90;;;11.20;99.90;;;;;;5047753;28;20471;-72
2022/12/29 02:35:49;;;;;;;1999.90;999.90;;;11.20;99.90;;;;;;5052751;28;20417;-68
2022/12/29 02:38:32;;;;;;;1999.90;999.90;;;11.30;99.90;;;;;;5053184;28;20413;-72
2022/12/29 02:41:06;;;;;;;1999.90;999.90;;;11.30;99.90;;;;;;5051977;28;20425;-69
2022/12/29 02:43:39;;;;;;;1999.90;999.90;;;11.50;99.90;;;;;;5052863;28;20573;-72
2022/12/29 02:46:18;;;;;;;1999.90;999.90;;;11.40;99.90;;;;;;5052517;28;20463;-69
2022/12/29 02:48:51;;;;;;;1999.90;999.90;;;11.40;99.90;;;;;;5051945;28;20447;-70
2022/12/29 02:51:24;;;;;;;1999.90;999.90;;;11.40;99.90;;;;;;5049380;28;20433;-66
2022/12/29 02:56:37;;;;;;;1999.90;999.90;;;11.40;99.90;;;;;;5032448;28;20402;-70
2022/12/29 02:59:04;;;;;;;1999.90;999.90;;;11.40;99.90;;;;;;5034927;28;20435;-70
2022/12/29 03:02:17;;;;;;;1999.90;999.90;;;11.30;99.90;;;;;;5052593;28;20413;-69
2022/12/29 03:05:03;;;;;;;1999.90;999.90;;;11.20;99.90;;;;;;5052659;28;20409;-70
2022/12/29 03:07:39;;;;;;;1999.90;999.90;;;11.30;99.90;;;;;;5051841;28;20413;-72
2022/12/29 03:10:15;;;;;;;1999.90;999.90;;;11.30;99.90;;;;;;5051499;28;20940;-69
2022/12/29 03:18:33;;;;;;;1999.90;999.90;;;11.40;99.90;;;;;;5052121;28;20431;-70
2022/12/29 03:21:06;;;;;;;1999.90;999.90;;;11.40;99.90;;;;;;5050510;28;20433;-70
2022/12/29 03:23:35;;;;;;;1999.90;999.90;;;11.50;99.90;;;;;;5052360;28;20568;-72
2022/12/29 03:26:07;;;;;;;1999.90;999.90;;;11.40;99.90;;;;;;5051812;28;20494;-69
2022/12/29 03:28:38;;;;;;;1999.90;999.90;;;11.50;99.90;;;;;;5052042;28;20495;-70
2022/12/29 03:31:07;;;;;;;1999.90;999.90;;;11.50;99.90;;;;;;5050983;28;20455;-70
2022/12/29 03:33:37;;;;;;;1999.90;999.90;;;11.50;99.90;;;;;;5051481;28;20413;-69
2022/12/29 03:36:08;;;;;;;1999.90;999.90;;;11.60;99.90;;;;;;5051913;28;20835;-70
2022/12/29 03:38:38;;;;;;;1999.90;999.90;;;11.60;99.90;;;;;;5051698;28;20789;-70
2022/12/29 03:41:11;;;;;;;1999.90;999.90;;;11.70;99.90;;;;;;5051471;28;20699;-69
2022/12/29 03:43:39;;;;;;;1999.90;999.90;;;11.70;99.90;;;;;;5051958;28;20413;-70
2022/12/29 03:46:06;;;;;;;1999.90;999.90;;;11.70;99.90;;;;;;5051293;28;20421;-70
2022/12/29 03:48:33;;;;;;;1999.90;999.90;;;11.70;99.90;;;;;;5051589;28;20824;-70
2022/12/29 03:51:01;;;;;;;1999.90;999.90;;;11.70;99.90;;;;;;5049883;28;20429;-71
2022/12/29 03:53:27;;;;;;;1999.90;999.90;;;11.70;99.90;;;;;;5051607;28;20471;-70
2022/12/29 03:55:54;;;;;;;1999.90;999.90;;;11.80;99.90;;;;;;5050994;28;21142;-70
2022/12/29 03:58:20;;;;;;;1999.90;999.90;;;11.60;99.90;;;;;;5051422;28;20417;-69
2022/12/29 04:00:47;;;;;;;1999.90;999.90;;;11.60;99.90;;;;;;5050552;28;20433;-70
2022/12/29 04:03:14;;;;;;;1999.90;999.90;;;11.40;99.90;;;;;;5051619;28;20414;-70
2022/12/29 04:05:40;;;;;;;1999.90;999.90;;;11.30;99.90;;;;;;5051256;28;20606;-70
2022/12/29 04:08:08;;;;;;;1999.90;999.90;;;11.30;99.90;;;;;;5051119;28;20439;-69
2022/12/29 04:10:35;;;;;;;1999.90;999.90;;;11.00;99.90;;;;;;5050139;28;20425;-69
2022/12/29 04:13:02;;;;;;;1999.90;999.90;;;10.90;99.90;;;;;;5051064;28;20409;-70
2022/12/29 04:15:28;;;;;;;1999.90;999.90;;;10.80;99.90;;;;;;5050525;28;20460;-69
2022/12/29 04:17:55;;;;;;;1999.90;999.90;;;10.90;99.90;;;;;;5050605;28;20405;-70
2022/12/29 04:23:08;;;;;;;1999.90;999.90;;;11.40;99.90;;;;;;5050817;28;20408;-70
2022/12/29 04:25:35;;;;;;;1999.90;999.90;;;11.40;99.90;;;;;;5050872;28;20510;-70
2022/12/29 04:28:01;;;;;;;1999.90;999.90;;;11.50;99.90;;;;;;5050476;28;20896;-70
2022/12/29 04:30:28;;;;;;;1999.90;999.90;;;11.60;99.90;;;;;;5049020;28;20433;-69
2022/12/29 04:32:55;;;;;;;1999.90;999.90;;;11.50;99.90;;;;;;5050077;28;20417;-70
2022/12/29 04:35:22;;;;;;;1999.90;999.90;;;11.60;99.90;;;;;;5051020;28;20413;-69
2022/12/29 04:37:48;;;;;;;1999.90;999.90;;;11.60;99.90;;;;;;5050125;28;20413;-69
2022/12/29 04:40:16;;;;;;;1999.90;999.90;;;11.60;99.90;;;;;;5050107;28;20514;-70
2022/12/29 04:42:43;;;;;;;1999.90;999.90;;;11.70;99.90;;;;;;5050678;28;20471;-70
2022/12/29 04:45:10;;;;;;;1999.90;999.90;;;11.80;99.90;;;;;;5050926;28;20467;-71
2022/12/29 04:47:37;;;;;;;1999.90;999.90;;;11.80;99.90;;;;;;5050163;28;20417;-72
2022/12/29 04:50:04;;;;;;;1999.90;999.90;;;11.80;99.90;;;;;;5049459;28;20425;-72
2022/12/29 04:52:31;;;;;;;1999.90;999.90;;;11.80;99.90;;;;;;5050357;28;20820;-71
2022/12/29 04:54:58;;;;;;;1999.90;999.90;;;11.90;99.90;;;;;;5050791;28;20470;-69
2022/12/29 04:57:26;;;;;;;1999.90;999.90;;;11.90;99.90;;;;;;5050275;28;20445;-70
2022/12/29 04:59:53;;;;;;;1999.90;999.90;;;12.00;99.90;;;;;;5049496;28;20437;-70
2022/12/29 05:02:20;;;;;;;1999.90;999.90;;;12.00;99.90;;;;;;5050517;28;20417;-70
2022/12/29 05:04:46;;;;;;;1999.90;999.90;;;12.00;99.90;;;;;;5050319;28;20416;-69
2022/12/29 05:07:13;;;;;;;1999.90;999.90;;;12.00;99.90;;;;;;5049912;28;20453;-67
2022/12/29 05:09:40;;;;;;;1999.90;999.90;;;11.90;99.90;;;;;;5049566;28;20429;-70
2022/12/29 05:12:07;;;;;;;1999.90;999.90;;;11.90;99.90;;;;;;5049892;28;20429;-70
2022/12/29 05:14:34;;;;;;;1999.90;999.90;;;11.90;99.90;;;;;;5050532;28;20409;-69
2022/12/29 05:17:01;;;;;;;1999.90;999.90;;;12.00;99.90;;;;;;5049532;28;20417;-70
2022/12/29 05:19:28;;;;;;;1999.90;999.90;;;12.00;99.90;;;;;;5050214;28;20475;-69
2022/12/29 05:21:55;;;;;;;1999.90;999.90;;;12.00;99.90;;;;;;5050103;28;20432;-70
2022/12/29 05:24:21;;;;;;;1999.90;999.90;;;11.90;99.90;;;;;;5050454;28;20504;-70
2022/12/29 05:26:48;;;;;;;1999.90;999.90;;;11.90;99.90;;;;;;5049934;28;20413;-68
2022/12/29 05:29:14;;;;;;;1999.90;999.90;;;11.90;99.90;;;;;;5049468;28;20479;-71
2022/12/29 05:31:42;;;;;;;1999.90;999.90;;;11.90;99.90;;;;;;5049780;28;20490;-70
2022/12/29 05:34:11;;;;;;;1999.90;999.90;;;11.90;99.90;;;;;;5050051;28;20475;-69
2022/12/29 05:36:38;;;;;;;1999.90;999.90;;;11.90;99.90;;;;;;5049972;28;20458;-71
2022/12/29 05:39:04;;;;;;;1999.90;999.90;;;11.90;99.90;;;;;;5050004;28;20436;-69
2022/12/29 05:41:31;;;;;;;1999.90;999.90;;;11.90;99.90;;;;;;5049095;28;20478;-69
2022/12/29 05:43:58;;;;;;;1999.90;999.90;;;11.80;99.90;;;;;;5052050;28;20486;-69
2022/12/29 05:46:24;;;;;;;1999.90;999.90;;;11.70;99.90;;;;;;5053354;28;20888;-69
2022/12/29 05:48:52;;;;;;;1999.90;999.90;;;11.70;99.90;;;;;;5054079;28;20470;-72
2022/12/29 05:51:19;;;;;;;1999.90;999.90;;;11.70;99.90;;;;;;5052744;28;20486;-70
2022/12/29 05:53:45;;;;;;;1999.90;999.90;;;11.70;99.90;;;;;;5053746;28;20417;-70
2022/12/29 05:56:12;;;;;;;1999.90;999.90;;;11.70;99.90;;;;;;5053758;28;20413;-70
2022/12/29 05:58:39;;;;;;;1999.90;999.90;;;11.70;99.90;;;;;;5053681;28;20467;-70
2022/12/29 06:01:06;;;;;;;1999.90;999.90;;;11.70;99.90;;;;;;5052764;28;20476;-70
2022/12/29 06:03:32;;;;;;;1999.90;999.90;;;11.90;99.90;;;;;;5053801;28;20417;-72
2022/12/29 06:06:00;;;;;;;1999.90;999.90;;;11.90;99.90;;;;;;5053377;28;20475;-69
2022/12/29 06:08:27;;;;;;;1999.90;999.90;;;11.90;99.90;;;;;;5053475;28;20417;-70
2022/12/29 06:10:53;;;;;;;1999.90;999.90;;;11.90;99.90;;;;;;5052532;28;20436;-70
2022/12/29 06:13:20;;;;;;;1999.90;999.90;;;11.90;99.90;;;;;;5053638;28;20498;-72
2022/12/29 06:15:49;;;;;;;1999.90;999.90;;;11.80;99.90;;;;;;5052892;28;20421;-70
2022/12/29 06:18:16;;;;;;;1999.90;999.90;;;11.80;99.90;;;;;;5053247;28;20471;-70
2022/12/29 06:20:43;;;;;;;1999.90;999.90;;;11.80;99.90;;;;;;5052549;28;20426;-71
2022/12/29 06:23:11;;;;;;;1999.90;999.90;;;11.70;99.90;;;;;;5053265;28;20443;-71
2022/12/29 06:25:38;;;;;;;1999.90;999.90;;;11.80;99.90;;;;;;5053019;28;20911;-69
2022/12/29 06:28:05;;;;;;;1999.90;999.90;;;11.90;99.90;;;;;;5053146;28;20416;-69
2022/12/29 06:30:32;;;;;;;1999.90;999.90;;;11.80;99.90;;;;;;5052088;28;20435;-70
2022/12/29 06:32:59;;;;;;;1999.90;999.90;;;11.80;99.90;;;;;;5053160;28;20475;-70
2022/12/29 06:35:26;;;;;;;1999.90;999.90;;;11.80;99.90;;;;;;5053009;28;20417;-70
2022/12/29 06:37:52;;;;;;;1999.90;999.90;;;11.80;99.90;;;;;;5052567;28;20889;-70
2022/12/29 06:40:21;;;;;;;1999.90;999.90;;;11.70;99.90;;;;;;5051858;28;20913;-70
2022/12/29 06:42:48;;;;;;;1999.90;999.90;;;11.90;99.90;;;;;;5052871;28;20429;-72
2022/12/29 06:45:14;;;;;;;1999.90;999.90;;;11.80;99.90;;;;;;5052576;28;20413;-70
2022/12/29 06:47:41;;;;;;;1999.90;999.90;;;11.80;99.90;;;;;;5052268;28;20458;-71
2022/12/29 06:50:08;;;;;;;1999.90;999.90;;;11.80;99.90;;;;;;5051505;28;20924;-72
2022/12/29 06:52:35;;;;;;;1999.90;999.90;;;11.80;99.90;;;;;;5052057;28;20813;-71
2022/12/29 06:55:02;;;;;;;1999.90;999.90;;;11.90;99.90;;;;;;5051497;28;20892;-73
2022/12/29 06:57:30;;;;;;;1999.90;999.90;;;11.90;99.90;;;;;;5052085;28;20881;-70
2022/12/29 06:59:56;;;;;;;1999.90;999.90;;;11.90;99.90;;;;;;5051508;28;20437;-72
2022/12/29 07:02:24;;;;;;;1999.90;999.90;;;12.00;99.90;;;;;;5051554;28;20491;-72
2022/12/29 07:04:51;;;;;;;1999.90;999.90;;;12.00;99.90;;;;;;5052217;28;20958;-70
2022/12/29 07:07:18;;;;;;;1999.90;999.90;;;12.10;99.90;;;;;;5052089;28;20423;-73
2022/12/29 07:09:45;;;;;;;1999.90;999.90;;;12.10;99.90;;;;;;5050884;28;20421;-70
2022/12/29 07:12:11;;;;;;;1999.90;999.90;;;12.10;99.90;;;;;;5047761;28;20569;-70
2022/12/29 07:14:40;;;;;;;1999.90;999.90;;;12.10;99.90;;;;;;5051684;28;20491;-69
2022/12/29 07:17:06;;;;;;;1999.90;999.90;;;12.10;99.90;;;;;;5051672;28;20908;-70
2022/12/29 07:19:33;;;;;;;1999.90;999.90;;;12.10;99.90;;;;;;5051707;28;20478;-70
2022/12/29 07:21:59;;;;;;;1999.90;999.90;;;12.20;99.90;;;;;;5051389;28;20417;-70
2022/12/29 07:24:26;;;;;;;1999.90;999.90;;;12.20;99.90;;;;;;5052108;28;20413;-70
2022/12/29 07:26:53;;;;;;;1999.90;999.90;;;12.10;99.90;;;;;;5051798;28;20502;-69
2022/12/29 07:29:20;;;;;;;1999.90;999.90;;;12.10;99.90;;;;;;5051489;28;20417;-71
2022/12/29 07:31:48;;;;;;;1999.90;999.90;;;12.10;99.90;;;;;;5050742;28;20429;-70
2022/12/29 07:34:14;;;;;;;1999.90;999.90;;;12.20;99.90;;;;;;5051904;28;20464;-71
2022/12/29 07:36:41;;;;;;;1999.90;999.90;;;12.20;99.90;;;;;;5051519;28;20417;-69
2022/12/29 07:39:08;;;;;;;1999.90;999.90;;;12.10;99.90;;;;;;5051829;28;20413;-71
2022/12/29 07:41:35;;;;;;;1999.90;999.90;;;12.20;99.90;;;;;;5049644;28;20829;-71
2022/12/29 07:44:01;;;;;;;1999.90;999.90;;;12.20;99.90;;;;;;5051502;28;20439;-71
2022/12/29 07:46:28;;;;;;;1999.90;999.90;;;12.20;99.90;;;;;;5051400;28;20889;-69
2022/12/29 07:48:56;;;;;;;1999.90;999.90;;;12.20;99.90;;;;;;5047564;28;20456;-71
2022/12/29 07:51:22;;;;;;;1999.90;999.90;;;12.30;99.90;;;;;;5045289;28;20820;-70
2022/12/29 07:53:49;;;;;;;1999.90;999.90;;;12.20;99.90;;;;;;5048090;28;20483;-70
2022/12/29 07:56:16;;;;;;;1999.90;999.90;;;12.30;99.90;;;;;;5048402;28;20433;-69
2022/12/29 07:58:43;;;;;;;1999.90;999.90;;;12.30;99.90;;;;;;5051163;28;20828;-70
2022/12/29 08:01:10;;;;;;;1999.90;999.90;;;12.30;99.90;;;;;;5051574;28;20492;-70
2022/12/29 08:03:37;;;;;;;1999.90;999.90;;;12.40;99.90;;;;;;5050853;28;20413;-69
2022/12/29 08:06:06;;;;;;;1999.90;999.90;;;12.40;99.90;;;;;;5050701;28;20467;-70
2022/12/29 08:08:32;;;;;;;1999.90;999.90;;;12.40;99.90;;;;;;5051246;28;20467;-70
2022/12/29 08:10:59;;;;;;;1999.90;999.90;;;12.30;99.90;;;;;;5050820;28;20413;-71
2022/12/29 08:13:25;;;;;;;1999.90;999.90;;;12.30;99.90;;;;;;5048323;28;20410;-68
2022/12/29 08:15:52;;;;;;;1999.90;999.90;;;12.30;99.90;;;;;;5030652;28;20419;-68
2022/12/29 08:18:19;;;;;;;1999.90;999.90;;;12.30;99.90;;;;;;5031033;28;20418;-68
2022/12/29 08:20:45;;;;;;;1999.90;999.90;;;12.20;99.90;;;;;;5046435;28;20461;-70
2022/12/29 08:23:13;;;;;;;1999.90;999.90;;;12.10;99.90;;;;;;5050832;28;20836;-71
2022/12/29 08:25:40;;;;;;;1999.90;999.90;;;12.10;99.90;;;;;;5050953;28;20413;-70
2022/12/29 08:28:07;;;;;;;1999.90;999.90;;;12.10;99.90;;;;;;5050814;28;20516;-71
2022/12/29 08:30:33;;;;;;;1999.90;999.90;;;12.00;99.90;;;;;;5050863;28;20889;-70
2022/12/29 08:33:00;;;;;;;1999.90;999.90;;;12.00;99.90;;;;;;5050453;28;20987;-67
2022/12/29 08:35:27;;;;;;;1999.90;999.90;;;12.00;99.90;;;;;;5050728;28;20421;-70
2022/12/29 08:37:53;;;;;;;1999.90;999.90;;;12.00;99.90;;;;;;5049830;28;20426;-69
2022/12/29 08:40:21;;;;;;;1999.90;999.90;;;12.00;99.90;;;;;;5050537;28;20951;-69
2022/12/29 08:42:48;;;;;;;1999.90;999.90;;;12.00;99.90;;;;;;5050945;28;20413;-70
2022/12/29 08:45:15;;;;;;;1999.90;999.90;;;12.00;99.90;;;;;;5050768;28;20405;-70
2022/12/29 08:47:41;;;;;;;1999.90;999.90;;;11.80;99.90;;;;;;5048135;28;20428;-68
2022/12/29 08:50:08;;;;;;;1999.90;999.90;;;11.80;99.90;;;;;;5049571;28;20437;-68
2022/12/29 08:52:35;;;;;;;1999.90;999.90;;;11.90;99.90;;;;;;5050553;28;20523;-68
2022/12/29 08:55:01;;;;;;;1999.90;999.90;;;11.90;99.90;;;;;;5041585;28;20493;-68
2022/12/29 08:57:29;;;;;;;1999.90;999.90;;;11.90;99.90;;;;;;5048466;28;20467;-67
2022/12/29 08:59:56;;;;;;;1999.90;999.90;;;12.10;99.90;;;;;;5049666;28;20439;-68
2022/12/29 09:02:22;;;;;;;1999.90;999.90;;;12.10;99.90;;;;;;5050312;28;20421;-68
2022/12/29 09:04:49;;;;;;;1999.90;999.90;;;12.10;99.90;;;;;;5049208;28;20429;-68
2022/12/29 09:07:16;;;;;;;1999.90;999.90;;;12.00;99.90;;;;;;5049867;28;20817;-70
2022/12/29 09:09:42;;;;;;;1999.90;999.90;;;12.00;99.90;;;;;;5049231;28;20974;-68
2022/12/29 09:12:09;;;;;;;1999.90;999.90;;;12.00;99.90;;;;;;5049477;28;20437;-68
2022/12/29 09:14:37;;;;;;;1999.90;999.90;;;11.90;99.90;;;;;;5048778;28;20429;-69
2022/12/29 09:19:48;;;;;;;1999.90;999.90;;;12.00;99.90;;;;;;5029923;28;20406;-68
2022/12/29 09:22:14;;;;;;;1999.90;999.90;;;12.00;99.90;;;;;;5044168;28;20852;-69
2022/12/29 09:24:41;;;;;;;1999.90;999.90;;;12.00;99.90;;;;;;5049913;28;20763;-69
2022/12/29 09:27:07;;;;;;;1999.90;999.90;;;12.00;99.90;;;;;;5049878;28;20912;-68
2022/12/29 09:29:34;;;;;;;1999.90;999.90;;;12.00;99.90;;;;;;5050299;28;20467;-68
2022/12/29 09:32:02;;;;;;;1999.90;999.90;;;11.80;99.90;;;;;;5050287;28;20510;-68
2022/12/29 09:34:29;;;;;;;1999.90;999.90;;;11.80;99.90;;;;;;5048475;28;20429;-67
2022/12/29 09:36:56;;;;;;;1999.90;999.90;;;11.80;99.90;;;;;;5049841;28;20489;-69
2022/12/29 09:39:23;;;;;;;1999.90;999.90;;;11.70;99.90;;;;;;5050227;28;20415;-69
2022/12/29 09:41:53;;;;;;;1999.90;999.90;;;11.50;99.90;;;;;;5049834;28;20781;-68
2022/12/29 09:44:26;;;;;;;1999.90;999.90;;;11.30;99.90;;;;;;5045729;28;20520;-69
2022/12/29 09:46:56;;;;;;;1999.90;999.90;;;11.20;99.90;;;;;;5042552;28;20417;-68
2022/12/29 09:49:29;;;;;;;1999.90;999.90;;;11.20;99.90;;;;;;5049919;28;20421;-69
2022/12/29 09:52:04;;;;;;;1999.90;999.90;;;11.30;99.90;;;;;;5047157;28;20429;-68
2022/12/29 09:54:42;;;;;;;1999.90;999.90;;;11.20;99.90;;;;;;5048016;28;20418;-69
2022/12/29 09:57:17;;;;;;;1999.90;999.90;;;11.30;99.90;;;;;;5048398;28;20429;-68
2022/12/29 09:59:45;;;;;;;1999.90;999.90;;;11.30;99.90;;;;;;5049930;28;20423;-68
2022/12/29 10:02:29;;;;;;;1999.90;999.90;;;11.30;99.90;;;;;;5050082;28;20417;-68
2022/12/29 10:04:58;;;;;;;1999.90;999.90;;;11.20;99.90;;;;;;5046968;28;20469;-68
2022/12/29 10:07:33;;;;;;;1999.90;999.90;;;11.30;99.90;;;;;;5049208;28;20425;-68
2022/12/29 10:10:12;;;;;;;1999.90;999.90;;;11.30;99.90;;;;;;5049437;28;20832;-68
2022/12/29 10:12:54;;;;;;;1999.90;999.90;;;11.40;99.90;;;;;;5049727;28;20421;-69
2022/12/29 10:15:42;;;;;;;1999.90;999.90;;;11.30;99.90;;;;;;5049539;28;20417;-69
2022/12/29 10:18:24;;;;;;;1999.90;999.90;;;11.30;99.90;;;;;;5047668;28;20483;-69
2022/12/29 10:20:56;;;;;;;1999.90;999.90;;;11.40;99.90;;;;;;5042031;28;20486;-68
2022/12/29 10:23:28;;;;;;;1999.90;999.90;;;11.30;99.90;;;;;;5049911;28;20479;-69
2022/12/29 10:25:57;;;;;;;1999.90;999.90;;;11.10;99.90;;;;;;5049476;28;20475;-68
2022/12/29 10:28:32;;;;;;;1999.90;999.90;;;11.30;99.90;;;;;;5049068;28;20409;-67
2022/12/29 10:31:00;;;;;;;1999.90;999.90;;;11.40;99.90;;;;;;5051215;28;20880;-69
2022/12/29 10:33:35;;;;;;;1999.90;999.90;;;11.40;99.90;;;;;;5052853;28;20479;-69
2022/12/29 10:36:16;;;;;;;1999.90;999.90;;;11.50;99.90;;;;;;5053047;28;20420;-69
2022/12/29 10:38:51;;;;;;;1999.90;999.90;;;11.50;99.90;;;;;;5052928;28;20432;-68
2022/12/29 10:41:21;;;;;;;1999.90;999.90;;;11.60;99.90;;;;;;5051633;28;20808;-67
2022/12/29 10:43:50;;;;;;;1999.90;999.90;;;11.60;99.90;;;;;;5045408;28;20417;-68
2022/12/29 10:46:21;;;;;;;1999.90;999.90;;;11.70;99.90;;;;;;5052928;28;20499;-69
2022/12/29 10:48:48;;;;;;;1999.90;999.90;;;11.80;99.90;;;;;;5053015;28;20418;-69
2022/12/29 10:51:22;;;;;;;1999.90;999.90;;;11.90;99.90;;;;;;5051784;28;20478;-69
2022/12/29 10:53:52;;;;;;;1999.90;999.90;;;12.00;99.90;;;;;;5044914;28;20892;-67
2022/12/29 10:56:28;;;;;;;1999.90;999.90;;;12.00;99.90;;;;;;5052324;28;20416;-69
2022/12/29 10:58:58;;;;;;;1999.90;999.90;;;12.00;99.90;;;;;;5052393;28;20412;-70
2022/12/29 11:01:30;;;;;;;1999.90;999.90;;;12.10;99.90;;;;;;5052531;28;20828;-72
2022/12/29 11:04:04;;;;;;;1999.90;999.90;;;12.20;99.90;;;;;;5051551;28;20433;-70
2022/12/29 11:06:33;;;;;;;1999.90;999.90;;;12.30;99.90;;;;;;5051680;28;20470;-70
2022/12/29 11:09:10;;;;;;;1999.90;999.90;;;12.30;99.90;;;;;;5052005;28;20431;-66
2022/12/29 11:11:37;;;;;;;1999.90;999.90;;;12.40;99.90;;;;;;5052644;28;20421;-69
2022/12/29 11:14:12;;;;;;;1999.90;999.90;;;12.40;99.90;;;;;;5051487;28;20425;-70
2022/12/29 11:16:38;;;;;;;1999.90;999.90;;;12.40;99.90;;;;;;5051275;28;20508;-69
2022/12/29 11:19:06;;;;;;;1999.90;999.90;;;12.50;99.90;;;;;;5052525;28;20424;-70
2022/12/29 11:21:39;;;;;;;1999.90;999.90;;;12.50;99.90;;;;;;5052233;28;20413;-70
2022/12/29 11:24:20;;;;;;;1999.90;999.90;;;12.60;99.90;;;;;;5052184;28;20432;-69
2022/12/29 11:26:47;;;;;;;1999.90;999.90;;;12.60;99.90;;;;;;5051201;28;20479;-71
2022/12/29 11:29:22;;;;;;;1999.90;999.90;;;12.70;99.90;;;;;;5051960;28;20421;-69
2022/12/29 11:31:51;;;;;;;1999.90;999.90;;;12.80;99.90;;;;;;5052057;28;20840;-71
2022/12/29 11:34:19;;;;;;;1999.90;999.90;;;12.90;99.90;;;;;;5052189;28;20413;-70
2022/12/29 11:36:48;;;;;;;1999.90;999.90;;;12.90;99.90;;;;;;5051388;28;20409;-69
2022/12/29 11:39:29;;;;;;;1999.90;999.90;;;12.80;99.90;;;;;;5051004;28;20511;-70
2022/12/29 11:41:57;;;;;;;1999.90;999.90;;;12.80;99.90;;;;;;5044829;28;20421;-70
2022/12/29 11:44:24;;;;;;;1999.90;999.90;;;12.90;99.90;;;;;;5051825;28;21080;-70
2022/12/29 11:46:53;;;;;;;1999.90;999.90;;;13.00;99.90;;;;;;5051521;28;20413;-70
2022/12/29 11:49:22;;;;;;;1999.90;999.90;;;13.00;99.90;;;;;;5051830;28;20417;-69
2022/12/29 11:51:54;;;;;;;1999.90;999.90;;;13.10;99.90;;;;;;5050131;28;20437;-70
2022/12/29 11:54:25;;;;;;;1999.90;999.90;;;13.30;99.90;;;;;;5051559;28;20425;-70
2022/12/29 11:56:53;;;;;;;1999.90;999.90;;;13.20;99.90;;;;;;5051536;28;20413;-70
2022/12/29 11:59:42;;;;;;;1999.90;999.90;;;13.50;99.90;;;;;;5051477;28;20413;-68
2022/12/29 12:02:35;;;;;;;1999.90;999.90;;;13.30;99.90;;;;;;5045680;28;20909;-68
2022/12/29 12:05:09;;;;;;;1999.90;999.90;;;13.10;99.90;;;;;;5043632;28;20934;-69
2022/12/29 12:07:41;;;;;;;1999.90;999.90;;;13.00;99.90;;;;;;5051212;28;20409;-69
2022/12/29 12:10:17;;;;;;;1999.90;999.90;;;13.00;99.90;;;;;;5051491;28;20413;-68
2022/12/29 12:12:51;;;;;;;1999.90;999.90;;;12.80;99.90;;;;;;5051188;28;20447;-69
2022/12/29 12:15:22;;;;;;;1999.90;999.90;;;12.70;99.90;;;;;;5049718;28;20441;-69
2022/12/29 12:17:53;;;;;;;1999.90;999.90;;;12.40;99.90;;;;;;5043100;28;20896;-69
2022/12/29 12:20:23;;;;;;;1999.90;999.90;;;12.30;99.90;;;;;;5050807;28;20413;-67
2022/12/29 12:23:03;;;;;;;1999.90;999.90;;;12.20;99.90;;;;;;5050876;28;20409;-68
2022/12/29 12:25:35;;;;;;;1999.90;999.90;;;12.30;99.90;;;;;;5050966;28;20492;-69
2022/12/29 12:28:10;;;;;;;1999.90;999.90;;;12.40;99.90;;;;;;5050073;28;20443;-69
2022/12/29 12:30:41;;;;;;;1999.90;999.90;;;12.30;99.90;;;;;;5050960;28;20479;-69
2022/12/29 12:33:19;;;;;;;1999.90;999.90;;;12.30;99.90;;;;;;5050648;28;20425;-68
2022/12/29 12:35:58;;;;;;;1999.90;999.90;;;12.20;99.90;;;;;;5050806;28;20471;-68
2022/12/29 12:38:35;;;;;;;1999.90;999.90;;;12.20;99.90;;;;;;5050878;28;20421;-69
2022/12/29 12:41:10;;;;;;;1999.90;999.90;;;12.10;99.90;;;;;;5049663;28;20433;-69
2022/12/29 12:43:47;;;;;;;1999.90;999.90;;;12.20;99.90;;;;;;5050675;28;20951;-69
2022/12/29 12:46:49;;;;;;;1999.90;999.90;;;12.20;99.90;;;;;;5050144;28;20410;-69
2022/12/29 12:49:46;;;;;;;1999.90;999.90;;;12.20;99.90;;;;;;5046089;28;20494;-69
2022/12/29 12:52:23;;;;;;;1999.90;999.90;;;12.20;99.90;;;;;;5014794;28;20821;-69
2022/12/29 12:55:06;;;;;;;1999.90;999.90;;;12.10;99.90;;;;;;5041239;28;20426;-67
2022/12/29 12:57:48;;;;;;;1999.90;999.90;;;12.30;99.90;;;;;;5045014;28;21010;-68